Time;durP1;ratioP1;P1;durP2;ratioP2;P2;SDS_P1;SDS_P2;PMS_P1;PMS_P2;Temp;Humidity;BMP_temperature;BMP_pressure;BME280_temperature;BME280_humidity;BME280_pressure;Samples;Min_cycle;Max_cycle;Signal;HPM_P1;HPM_P2
2022/08/07 00:01:25;;;;;;;1.73;1.63;;;20.60;74.90;;;;;;5016858;28;20022;-78
2022/08/07 00:03:50;;;;;;;2.45;1.45;;;20.60;74.90;;;;;;5019821;28;20018;-77
2022/08/07 00:06:16;;;;;;;2.60;1.60;;;20.50;74.90;;;;;;5025405;28;20095;-78
2022/08/07 00:08:42;;;;;;;2.08;1.35;;;20.50;75.00;;;;;;5017846;28;20147;-78
2022/08/07 00:11:08;;;;;;;1.60;1.30;;;20.50;75.00;;;;;;5010615;28;20410;-77
2022/08/07 00:13:36;;;;;;;1.55;1.10;;;20.50;75.10;;;;;;5006735;28;20030;-78
2022/08/07 00:16:03;;;;;;;3.35;1.30;;;20.50;75.30;;;;;;5008429;28;20033;-78
2022/08/07 00:18:28;;;;;;;1.42;1.33;;;20.50;75.30;;;;;;5016336;28;20045;-78
2022/08/07 00:21:03;;;;;;;1.20;1.10;;;20.50;75.50;;;;;;5010262;28;20034;-78
2022/08/07 00:23:34;;;;;;;1.52;1.30;;;20.40;76.20;;;;;;5014419;28;20041;-78
2022/08/07 00:26:02;;;;;;;1.55;1.33;;;20.50;75.50;;;;;;5013002;28;20057;-78
2022/08/07 00:28:30;;;;;;;1.45;1.20;;;20.40;75.40;;;;;;5015187;28;20021;-79
2022/08/07 00:30:55;;;;;;;1.30;1.20;;;20.50;75.70;;;;;;5009771;28;20048;-79
2022/08/07 00:33:25;;;;;;;2.20;1.48;;;20.40;75.60;;;;;;5023507;28;20497;-79
2022/08/07 00:35:53;;;;;;;1.65;1.23;;;20.40;75.70;;;;;;5015595;28;20478;-78
2022/08/07 00:38:19;;;;;;;1.60;1.38;;;20.40;76.00;;;;;;5027761;28;20038;-78
2022/08/07 00:40:45;;;;;;;1.60;1.38;;;20.40;75.70;;;;;;5016679;28;20045;-78
2022/08/07 00:43:11;;;;;;;5.43;1.20;;;20.40;75.60;;;;;;5023267;28;20033;-78
2022/08/07 00:45:39;;;;;;;1.50;1.30;;;20.40;75.40;;;;;;5013289;28;20036;-78
2022/08/07 00:48:06;;;;;;;1.67;1.38;;;20.40;75.40;;;;;;5016910;28;20091;-79
2022/08/07 00:50:32;;;;;;;2.63;1.58;;;20.40;75.70;;;;;;5018919;28;20364;-78
2022/08/07 00:52:58;;;;;;;2.17;1.20;;;20.40;75.40;;;;;;5016330;28;20025;-77
2022/08/07 00:55:24;;;;;;;1.75;1.58;;;20.40;75.00;;;;;;5015302;28;20485;-77
2022/08/07 00:57:50;;;;;;;3.97;1.63;;;20.30;74.90;;;;;;5014443;28;20380;-78
2022/08/07 01:00:17;;;;;;;2.70;1.70;;;20.30;75.50;;;;;;5009916;28;20049;-78
2022/08/07 01:02:44;;;;;;;2.28;1.60;;;20.20;75.90;;;;;;5014951;28;20021;-78
2022/08/07 01:05:10;;;;;;;2.15;1.30;;;20.20;76.30;;;;;;5023998;28;20104;-79
2022/08/07 01:07:36;;;;;;;1.98;1.48;;;20.10;76.40;;;;;;4997362;28;20042;-78
2022/08/07 01:10:02;;;;;;;1.92;1.20;;;20.10;76.60;;;;;;5008725;28;20040;-78
2022/08/07 01:12:29;;;;;;;3.40;1.20;;;20.20;77.10;;;;;;5008062;28;20443;-77
2022/08/07 01:14:57;;;;;;;2.25;1.65;;;20.20;76.80;;;;;;5008948;28;20502;-78
2022/08/07 01:17:23;;;;;;;1.45;1.35;;;20.20;76.80;;;;;;5014443;28;20022;-79
2022/08/07 01:19:50;;;;;;;2.60;1.67;;;20.20;76.50;;;;;;5004803;28;20026;-78
2022/08/07 01:22:16;;;;;;;3.75;1.83;;;20.30;75.90;;;;;;5017340;28;20022;-79
2022/08/07 01:24:43;;;;;;;1.42;1.30;;;20.30;75.90;;;;;;5008843;28;20398;-78
2022/08/07 01:27:09;;;;;;;1.30;1.20;;;20.30;75.70;;;;;;5011710;28;20026;-79
2022/08/07 01:29:35;;;;;;;1.67;1.45;;;20.30;75.80;;;;;;5007410;28;20034;-78
2022/08/07 01:32:02;;;;;;;2.03;1.60;;;20.30;75.70;;;;;;5016809;28;20506;-79
2022/08/07 01:34:32;;;;;;;2.42;1.80;;;20.20;75.80;;;;;;5014385;28;20168;-79
2022/08/07 01:36:59;;;;;;;2.00;1.50;;;20.20;75.80;;;;;;5014560;28;20523;-77
2022/08/07 01:39:28;;;;;;;2.47;1.60;;;20.10;75.90;;;;;;5014453;28;20034;-79
2022/08/07 01:41:54;;;;;;;1.42;1.27;;;20.10;75.80;;;;;;5011369;28;20030;-79
2022/08/07 01:44:20;;;;;;;4.97;1.30;;;20.10;75.70;;;;;;5009278;28;20672;-79
2022/08/07 01:46:46;;;;;;;7.35;1.63;;;20.10;75.90;;;;;;5007926;28;20037;-79
2022/08/07 01:49:15;;;;;;;3.33;1.45;;;20.10;76.00;;;;;;5019272;28;20029;-78
2022/08/07 01:51:42;;;;;;;2.17;1.35;;;20.00;76.20;;;;;;5010012;28;20029;-79
2022/08/07 01:54:12;;;;;;;1.40;1.30;;;20.00;76.40;;;;;;5014808;28;20033;-78
2022/08/07 01:57:04;;;;;;;1.42;1.33;;;20.00;76.40;;;;;;5006092;28;20029;-79
2022/08/07 01:59:42;;;;;;;1.73;1.40;;;20.00;76.40;;;;;;5013798;28;20108;-80
2022/08/07 02:02:13;;;;;;;1.20;1.08;;;20.00;76.50;;;;;;5010562;28;20037;-78
2022/08/07 02:04:46;;;;;;;1.90;1.15;;;19.90;76.80;;;;;;5011994;28;20025;-78
2022/08/07 02:07:13;;;;;;;1.23;1.13;;;20.00;77.00;;;;;;5012815;28;20022;-78
2022/08/07 02:09:42;;;;;;;3.33;1.73;;;20.00;76.90;;;;;;5008665;28;20025;-79
2022/08/07 02:12:18;;;;;;;2.60;2.05;;;20.00;76.90;;;;;;5008668;28;20499;-79
2022/08/07 02:14:51;;;;;;;1.30;1.00;;;20.00;76.90;;;;;;5009706;28;20036;-79
2022/08/07 02:17:17;;;;;;;3.88;1.27;;;20.00;76.70;;;;;;5023745;28;20587;-78
2022/08/07 02:19:46;;;;;;;1.77;1.30;;;20.00;76.50;;;;;;5016345;28;20040;-79
2022/08/07 02:22:15;;;;;;;2.95;1.40;;;20.00;76.30;;;;;;5006255;28;20391;-79
2022/08/07 02:24:45;;;;;;;1.70;1.25;;;20.00;76.20;;;;;;5007845;28;20038;-78
2022/08/07 02:27:15;;;;;;;1.60;1.40;;;20.00;76.10;;;;;;5011338;28;20077;-78
2022/08/07 02:29:41;;;;;;;2.70;1.35;;;20.00;76.30;;;;;;5011734;28;20022;-79
2022/08/07 02:32:09;;;;;;;1.42;1.27;;;19.90;76.30;;;;;;5003907;28;20117;-80
2022/08/07 02:34:38;;;;;;;3.65;1.23;;;19.90;76.40;;;;;;5028308;28;20037;-77
2022/08/07 02:37:07;;;;;;;1.88;1.30;;;19.90;76.30;;;;;;5009933;28;20165;-79
2022/08/07 02:39:35;;;;;;;2.90;0.95;;;19.90;76.60;;;;;;5013589;28;20076;-79
2022/08/07 02:42:02;;;;;;;1.33;1.23;;;19.90;76.70;;;;;;5011697;28;20403;-78
2022/08/07 02:44:29;;;;;;;1.70;1.33;;;19.90;76.50;;;;;;5011183;28;20092;-79
2022/08/07 02:46:57;;;;;;;1.50;1.35;;;19.90;76.70;;;;;;5011924;28;20096;-78
2022/08/07 02:49:23;;;;;;;3.08;1.13;;;19.80;76.80;;;;;;5011783;28;20037;-77
2022/08/07 02:51:50;;;;;;;1.23;1.13;;;19.90;76.50;;;;;;5008897;28;20052;-79
2022/08/07 02:54:19;;;;;;;1.98;1.38;;;19.90;76.50;;;;;;5026885;28;20120;-79
2022/08/07 02:56:46;;;;;;;1.55;1.20;;;19.80;76.40;;;;;;5011181;28;20026;-78
2022/08/07 02:59:15;;;;;;;1.63;1.23;;;19.80;76.50;;;;;;5021820;28;20076;-79
2022/08/07 03:01:43;;;;;;;2.42;1.50;;;19.80;76.80;;;;;;5009126;28;20076;-79
2022/08/07 03:04:11;;;;;;;1.27;1.17;;;19.80;77.00;;;;;;5009233;28;20053;-80
2022/08/07 03:06:38;;;;;;;1.55;1.20;;;19.70;77.10;;;;;;5024946;28;20030;-79
2022/08/07 03:09:08;;;;;;;2.33;1.50;;;19.70;77.20;;;;;;4995821;28;20418;-79
2022/08/07 03:11:36;;;;;;;2.15;1.30;;;19.70;77.20;;;;;;5008609;28;20021;-79
2022/08/07 03:14:03;;;;;;;2.20;1.58;;;19.70;77.30;;;;;;5012326;28;20061;-79
2022/08/07 03:16:33;;;;;;;2.70;1.38;;;19.70;77.30;;;;;;5006156;28;20100;-79
2022/08/07 03:18:59;;;;;;;1.75;1.45;;;19.70;77.60;;;;;;5003078;28;20364;-79
2022/08/07 03:21:26;;;;;;;4.68;1.77;;;19.70;77.60;;;;;;5004756;28;20026;-80
2022/08/07 03:23:57;;;;;;;2.08;1.20;;;19.70;77.50;;;;;;5005307;28;20022;-78
2022/08/07 03:26:27;;;;;;;3.35;1.08;;;19.70;77.60;;;;;;5009996;28;20057;-79
2022/08/07 03:28:54;;;;;;;1.55;1.38;;;19.60;77.60;;;;;;5015864;28;20030;-78
2022/08/07 03:31:22;;;;;;;1.38;1.27;;;19.60;77.80;;;;;;5007019;28;20022;-79
2022/08/07 03:33:54;;;;;;;1.48;1.30;;;19.60;77.70;;;;;;4997026;28;20069;-79
2022/08/07 03:36:22;;;;;;;2.83;2.15;;;19.60;77.70;;;;;;5020754;28;20022;-79
2022/08/07 03:38:49;;;;;;;2.65;1.40;;;19.60;77.80;;;;;;5010677;28;20450;-78
2022/08/07 03:41:15;;;;;;;2.53;1.55;;;19.60;77.60;;;;;;5015359;28;20149;-78
2022/08/07 03:43:42;;;;;;;1.42;1.33;;;19.60;77.60;;;;;;5022608;28;20041;-79
2022/08/07 03:46:08;;;;;;;4.00;1.70;;;19.60;77.70;;;;;;5010482;28;20034;-78
2022/08/07 03:48:35;;;;;;;1.80;1.15;;;19.60;77.70;;;;;;5007203;28;20047;-79
2022/08/07 03:51:04;;;;;;;1.95;1.35;;;19.70;77.80;;;;;;5013621;28;20032;-79
2022/08/07 03:53:30;;;;;;;2.97;1.13;;;19.60;77.80;;;;;;5021706;28;20109;-78
2022/08/07 03:55:58;;;;;;;1.48;1.13;;;19.60;78.40;;;;;;5008124;28;20030;-79
2022/08/07 03:58:24;;;;;;;1.70;1.17;;;19.60;77.80;;;;;;5016139;28;20022;-79
2022/08/07 04:00:52;;;;;;;1.45;1.35;;;19.60;78.00;;;;;;5007375;28;20030;-79
2022/08/07 04:03:19;;;;;;;1.52;1.20;;;19.60;78.30;;;;;;5018362;28;20026;-79
2022/08/07 04:05:45;;;;;;;3.88;1.40;;;19.60;78.30;;;;;;5015440;28;20068;-79
2022/08/07 04:08:13;;;;;;;1.70;1.50;;;19.60;78.20;;;;;;5023041;28;20100;-78
2022/08/07 04:10:41;;;;;;;1.30;1.20;;;19.60;78.20;;;;;;5013690;28;20030;-79
2022/08/07 04:13:10;;;;;;;1.02;0.93;;;19.60;78.00;;;;;;5011006;28;20397;-78
2022/08/07 04:15:36;;;;;;;1.52;1.17;;;19.60;78.00;;;;;;5018382;28;20112;-79
2022/08/07 04:18:02;;;;;;;1.33;0.98;;;19.50;78.00;;;;;;5004227;28;20558;-79
2022/08/07 04:20:28;;;;;;;1.85;1.50;;;19.50;78.20;;;;;;5014229;28;20121;-78
2022/08/07 04:22:54;;;;;;;2.28;1.63;;;19.50;78.50;;;;;;5011882;28;20063;-78
2022/08/07 04:25:22;;;;;;;2.63;1.58;;;19.50;78.60;;;;;;5012130;28;20023;-78
2022/08/07 04:27:48;;;;;;;1.58;1.40;;;19.50;78.50;;;;;;5011055;28;20398;-79
2022/08/07 04:30:14;;;;;;;4.43;1.50;;;19.50;78.70;;;;;;5021809;28;20484;-78
2022/08/07 04:32:41;;;;;;;1.77;1.40;;;19.50;78.30;;;;;;5013754;28;20022;-79
2022/08/07 04:35:08;;;;;;;1.45;1.33;;;19.50;77.90;;;;;;5010786;28;20575;-80
2022/08/07 04:37:34;;;;;;;2.58;1.50;;;19.50;78.00;;;;;;5017567;28;20033;-78
2022/08/07 04:40:01;;;;;;;1.55;1.17;;;19.50;77.80;;;;;;5021282;28;20030;-79
2022/08/07 04:42:29;;;;;;;2.10;1.60;;;19.50;77.80;;;;;;5023785;28;20033;-79
2022/08/07 04:45:00;;;;;;;3.25;1.25;;;19.50;77.80;;;;;;5013398;28;20388;-79
2022/08/07 04:47:42;;;;;;;2.05;1.27;;;19.50;77.80;;;;;;5025488;28;20025;-79
2022/08/07 04:50:14;;;;;;;2.17;1.30;;;19.50;77.50;;;;;;5019138;28;20029;-79
2022/08/07 04:52:49;;;;;;;1.55;1.30;;;19.50;77.20;;;;;;5023491;28;20064;-79
2022/08/07 04:55:24;;;;;;;1.55;1.23;;;19.50;77.00;;;;;;5014966;28;20488;-79
2022/08/07 04:57:56;;;;;;;1.25;1.15;;;19.50;77.20;;;;;;5009723;28;20029;-78
2022/08/07 05:00:55;;;;;;;1.25;1.15;;;19.50;77.30;;;;;;5013705;28;20023;-79
2022/08/07 05:03:23;;;;;;;2.03;1.30;;;19.40;77.40;;;;;;5003323;28;20049;-79
2022/08/07 05:06:05;;;;;;;1.67;1.25;;;19.40;77.30;;;;;;5011765;28;20030;-79
2022/08/07 05:08:49;;;;;;;3.28;1.40;;;19.40;77.50;;;;;;5014104;28;20029;-79
2022/08/07 05:11:23;;;;;;;1.70;1.30;;;19.40;77.40;;;;;;5009432;28;20110;-79
2022/08/07 05:14:26;;;;;;;1.52;1.15;;;19.40;77.50;;;;;;5021116;28;20084;-79
2022/08/07 05:16:58;;;;;;;2.22;1.40;;;19.40;77.60;;;;;;4970394;28;20049;-78
2022/08/07 05:19:28;;;;;;;1.85;1.30;;;19.40;77.40;;;;;;5012263;28;20033;-77
2022/08/07 05:21:57;;;;;;;1.48;1.38;;;19.40;77.40;;;;;;5011394;28;20045;-78
2022/08/07 05:24:23;;;;;;;2.08;1.73;;;19.30;77.40;;;;;;5008198;28;20038;-79
2022/08/07 05:26:54;;;;;;;1.20;1.05;;;19.30;77.60;;;;;;5014492;28;20702;-79
2022/08/07 05:29:22;;;;;;;4.07;1.73;;;19.30;77.90;;;;;;5024495;28;20072;-78
2022/08/07 05:31:50;;;;;;;1.50;1.40;;;19.30;78.20;;;;;;5011793;28;20033;-79
2022/08/07 05:34:17;;;;;;;1.35;0.98;;;19.30;78.50;;;;;;5021254;28;20022;-77
2022/08/07 05:36:49;;;;;;;1.48;1.38;;;19.20;78.20;;;;;;5012846;28;20055;-78
2022/08/07 05:39:17;;;;;;;3.97;1.38;;;19.30;78.40;;;;;;5023342;28;20502;-77
2022/08/07 05:41:46;;;;;;;2.35;1.30;;;19.20;78.40;;;;;;5014706;28;20033;-78
2022/08/07 05:44:12;;;;;;;1.88;1.23;;;19.20;78.70;;;;;;5011518;28;20069;-78
2022/08/07 05:46:40;;;;;;;3.17;1.33;;;19.20;78.70;;;;;;5026706;28;20033;-78
2022/08/07 05:49:07;;;;;;;1.45;1.17;;;19.20;78.90;;;;;;5018097;28;20260;-78
2022/08/07 05:51:34;;;;;;;1.70;1.45;;;19.20;79.00;;;;;;5013080;28;20029;-77
2022/08/07 05:54:01;;;;;;;2.55;1.30;;;19.20;79.10;;;;;;5009447;28;20063;-76
2022/08/07 05:56:28;;;;;;;2.00;1.20;;;19.20;79.30;;;;;;5015406;28;20219;-78
2022/08/07 05:58:55;;;;;;;1.52;1.20;;;19.30;79.30;;;;;;5018579;28;20120;-77
2022/08/07 06:01:22;;;;;;;1.17;1.00;;;19.20;79.30;;;;;;5013973;28;20033;-78
2022/08/07 06:03:52;;;;;;;1.73;1.25;;;19.30;79.50;;;;;;5013696;28;20068;-77
2022/08/07 06:06:19;;;;;;;3.05;1.30;;;19.20;79.60;;;;;;5011299;28;20026;-78
2022/08/07 06:08:45;;;;;;;1.88;1.10;;;19.20;79.70;;;;;;5015924;28;20159;-77
2022/08/07 06:11:12;;;;;;;1.23;1.10;;;19.30;79.90;;;;;;5012287;28;20033;-77
2022/08/07 06:13:41;;;;;;;1.40;1.30;;;19.30;79.90;;;;;;5009113;28;20030;-78
2022/08/07 06:16:08;;;;;;;2.50;1.75;;;19.20;79.90;;;;;;5029830;28;20026;-78
2022/08/07 06:18:34;;;;;;;2.65;1.50;;;19.20;80.00;;;;;;5010187;28;20425;-78
2022/08/07 06:21:02;;;;;;;1.20;1.10;;;19.30;80.20;;;;;;5014267;28;20025;-77
2022/08/07 06:23:28;;;;;;;1.45;1.27;;;19.20;80.20;;;;;;5015933;28;20113;-78
2022/08/07 06:25:55;;;;;;;1.77;1.50;;;19.30;80.50;;;;;;5016671;28;20073;-77
2022/08/07 06:28:21;;;;;;;2.00;1.60;;;19.30;80.50;;;;;;5008179;28;20042;-77
2022/08/07 06:30:47;;;;;;;2.03;1.65;;;19.30;80.40;;;;;;5015006;28;21203;-78
2022/08/07 06:33:17;;;;;;;1.77;1.40;;;19.30;80.50;;;;;;5006015;28;20529;-78
2022/08/07 06:35:43;;;;;;;3.13;1.75;;;19.30;80.60;;;;;;5022458;28;20390;-78
2022/08/07 06:38:09;;;;;;;1.92;1.40;;;19.30;80.70;;;;;;5009267;28;20030;-78
2022/08/07 06:40:44;;;;;;;3.85;1.42;;;19.30;80.90;;;;;;5015873;28;20038;-78
2022/08/07 06:43:12;;;;;;;2.15;1.38;;;19.30;80.80;;;;;;5002488;28;20097;-78
2022/08/07 06:45:38;;;;;;;1.50;1.40;;;19.30;81.00;;;;;;5011067;28;20030;-78
2022/08/07 06:48:05;;;;;;;2.17;1.30;;;19.30;80.90;;;;;;5009005;28;20040;-78
2022/08/07 06:50:34;;;;;;;1.75;1.23;;;19.30;80.80;;;;;;5018390;28;20041;-78
2022/08/07 06:53:01;;;;;;;2.17;1.38;;;19.30;81.20;;;;;;5012681;28;20041;-78
2022/08/07 06:55:30;;;;;;;2.05;1.33;;;19.40;81.40;;;;;;5008044;28;20036;-77
2022/08/07 06:58:01;;;;;;;1.30;1.15;;;19.40;81.20;;;;;;5009071;28;20022;-78
2022/08/07 07:00:34;;;;;;;2.25;1.38;;;19.40;81.00;;;;;;5021740;28;20053;-77
2022/08/07 07:03:00;;;;;;;2.08;1.25;;;19.40;81.20;;;;;;5010554;28;20079;-78
2022/08/07 07:05:27;;;;;;;1.65;1.50;;;19.40;81.20;;;;;;5011476;28;20029;-78
2022/08/07 07:07:53;;;;;;;1.73;1.60;;;19.40;81.20;;;;;;5004412;28;20033;-77
2022/08/07 07:10:32;;;;;;;4.38;1.33;;;19.40;81.30;;;;;;5004214;28;20026;-78
2022/08/07 07:13:15;;;;;;;2.72;1.50;;;19.40;81.40;;;;;;5010943;28;20469;-78
2022/08/07 07:15:48;;;;;;;1.40;1.30;;;19.40;81.40;;;;;;4999717;28;20071;-78
2022/08/07 07:18:20;;;;;;;;;;;19.40;81.40;;;;;;5010237;28;20446;-78
2022/08/07 07:20:56;;;;;;;1.92;1.33;;;19.40;81.30;;;;;;4996060;28;19964;-78
2022/08/07 07:23:24;;;;;;;2.90;1.52;;;19.40;81.70;;;;;;5007185;28;20049;-76
2022/08/07 07:25:53;;;;;;;2.38;1.77;;;19.40;81.60;;;;;;5018439;28;20100;-78
2022/08/07 07:28:31;;;;;;;2.17;1.58;;;19.40;81.60;;;;;;5010270;28;20100;-78
2022/08/07 07:31:12;;;;;;;1.67;1.30;;;19.40;81.60;;;;;;5016549;28;20087;-78
2022/08/07 07:33:41;;;;;;;6.85;1.65;;;19.40;81.50;;;;;;5009710;28;20108;-78
2022/08/07 07:36:08;;;;;;;2.00;1.73;;;19.40;81.40;;;;;;5011014;28;20025;-78
2022/08/07 07:38:34;;;;;;;1.35;1.25;;;19.40;81.20;;;;;;5015846;28;20025;-78
2022/08/07 07:41:07;;;;;;;2.80;1.38;;;19.40;81.00;;;;;;5015913;28;20037;-78
2022/08/07 07:43:34;;;;;;;3.63;1.87;;;19.40;81.10;;;;;;5018888;28;20034;-77
2022/08/07 07:46:02;;;;;;;1.60;1.50;;;19.40;81.00;;;;;;5013026;28;20040;-77
2022/08/07 07:48:29;;;;;;;4.43;1.90;;;19.40;81.00;;;;;;5021621;28;20028;-78
2022/08/07 07:50:58;;;;;;;2.78;1.52;;;19.50;81.10;;;;;;5007698;28;20034;-77
2022/08/07 07:53:24;;;;;;;1.95;1.40;;;19.40;80.90;;;;;;4994654;28;20026;-78
2022/08/07 07:55:52;;;;;;;1.50;1.40;;;19.40;81.00;;;;;;5011492;28;20421;-77
2022/08/07 07:58:20;;;;;;;1.35;1.25;;;19.40;81.00;;;;;;5011922;28;20054;-78
2022/08/07 08:00:47;;;;;;;1.20;1.10;;;19.40;81.00;;;;;;5016621;28;20072;-77
2022/08/07 08:03:16;;;;;;;1.50;1.40;;;19.40;81.00;;;;;;5016285;28;20055;-78
2022/08/07 08:05:42;;;;;;;1.13;1.05;;;19.40;81.00;;;;;;5008228;28;20036;-78
2022/08/07 08:08:10;;;;;;;1.45;1.33;;;19.40;81.00;;;;;;5011883;28;20026;-78
2022/08/07 08:10:37;;;;;;;1.65;1.42;;;19.40;81.00;;;;;;5015737;28;20089;-78
2022/08/07 08:13:04;;;;;;;1.80;1.50;;;19.40;81.00;;;;;;5008953;28;20501;-77
2022/08/07 08:15:35;;;;;;;1.40;1.30;;;19.40;81.00;;;;;;5015016;28;20442;-78
2022/08/07 08:18:02;;;;;;;1.70;1.45;;;19.40;81.00;;;;;;5012833;28;20132;-77
2022/08/07 08:20:31;;;;;;;6.88;1.80;;;19.40;81.00;;;;;;5016055;28;20117;-78
2022/08/07 08:28:31;;;;;;;1.83;1.40;;;19.40;81.00;;;;;;5028446;28;20036;-77
2022/08/07 08:31:00;;;;;;;1.75;1.35;;;19.40;81.00;;;;;;5023262;28;20036;-77
2022/08/07 08:33:33;;;;;;;1.98;1.40;;;19.40;80.90;;;;;;5017636;28;20514;-77
2022/08/07 08:36:00;;;;;;;4.57;2.47;;;19.40;81.00;;;;;;5020880;28;20026;-76
2022/08/07 08:38:32;;;;;;;1.95;1.30;;;19.40;81.10;;;;;;5038882;28;20109;-77
2022/08/07 08:41:13;;;;;;;1.30;1.20;;;19.40;81.00;;;;;;5015073;28;20030;-77
2022/08/07 08:43:53;;;;;;;1.25;1.15;;;19.40;81.00;;;;;;5015295;28;20030;-78
2022/08/07 08:46:33;;;;;;;2.08;1.30;;;19.40;81.00;;;;;;5013200;28;20037;-76
2022/08/07 08:49:15;;;;;;;2.45;1.40;;;19.40;81.00;;;;;;5023288;28;20039;-77
2022/08/07 08:52:07;;;;;;;1.42;1.13;;;19.40;81.00;;;;;;5015493;28;20088;-76
2022/08/07 08:54:57;;;;;;;2.42;1.65;;;19.40;81.10;;;;;;5022931;28;20035;-76
2022/08/07 08:57:45;;;;;;;1.88;1.30;;;19.40;81.00;;;;;;5010207;28;20030;-78
2022/08/07 09:00:12;;;;;;;1.92;1.50;;;19.50;81.00;;;;;;5022059;28;20108;-77
2022/08/07 09:02:38;;;;;;;1.25;1.15;;;19.40;80.80;;;;;;5008686;28;20087;-76
2022/08/07 09:05:58;;;;;;;2.58;1.83;;;19.40;81.20;;;;;;5012794;28;20026;-77
2022/08/07 09:08:35;;;;;;;2.42;1.60;;;19.40;80.60;;;;;;4990494;28;20069;-78
2022/08/07 09:11:18;;;;;;;1.60;1.40;;;19.40;80.90;;;;;;5010867;28;20499;-78
2022/08/07 09:13:52;;;;;;;1.40;1.20;;;19.40;81.00;;;;;;5015081;28;20084;-78
2022/08/07 09:16:24;;;;;;;2.53;1.88;;;19.40;81.10;;;;;;5016796;28;20041;-78
2022/08/07 09:19:28;;;;;;;2.08;1.88;;;19.40;80.90;;;;;;5014830;28;20030;-79
2022/08/07 09:22:36;;;;;;;1.50;1.40;;;19.40;80.90;;;;;;5015586;28;20125;-78
2022/08/07 09:25:24;;;;;;;1.98;1.85;;;19.40;80.80;;;;;;5015361;28;20038;-78
2022/08/07 09:27:59;;;;;;;2.47;1.50;;;19.40;80.60;;;;;;5021145;28;20076;-78
2022/08/07 09:30:31;;;;;;;1.65;1.55;;;19.40;80.50;;;;;;5019711;28;20027;-77
2022/08/07 09:33:05;;;;;;;2.20;1.67;;;19.50;80.20;;;;;;5020108;28;20045;-78
2022/08/07 09:35:55;;;;;;;3.45;1.42;;;19.40;79.60;;;;;;5020903;28;20049;-77
2022/08/07 09:38:35;;;;;;;1.70;1.60;;;19.40;80.00;;;;;;5011010;28;20165;-78
2022/08/07 09:41:13;;;;;;;1.90;1.42;;;19.50;80.70;;;;;;5014604;28;20044;-79
2022/08/07 09:43:57;;;;;;;1.92;1.73;;;19.50;80.40;;;;;;5019809;28;20115;-79
2022/08/07 09:46:38;;;;;;;3.00;1.90;;;19.50;79.60;;;;;;5026277;28;20105;-79
2022/08/07 09:49:52;;;;;;;1.98;1.70;;;19.50;79.10;;;;;;5021897;28;20431;-78
2022/08/07 09:52:50;;;;;;;1.37;1.27;;;19.50;79.20;;;;;;4930768;28;20457;-78
2022/08/07 09:55:19;;;;;;;3.47;1.90;;;19.50;79.60;;;;;;4999924;28;20260;-79
2022/08/07 09:58:13;;;;;;;5.03;1.33;;;19.50;79.30;;;;;;5018530;28;20112;-78
2022/08/07 10:00:52;;;;;;;2.40;1.65;;;19.60;78.90;;;;;;5015878;28;20248;-77
2022/08/07 10:03:46;;;;;;;1.80;1.70;;;19.60;78.60;;;;;;5018561;28;20117;-78
2022/08/07 10:06:21;;;;;;;3.42;2.30;;;19.60;78.50;;;;;;5014386;28;20054;-79
2022/08/07 10:09:13;;;;;;;2.13;1.92;;;19.60;78.80;;;;;;5014534;28;20474;-78
2022/08/07 10:12:16;;;;;;;2.55;2.35;;;19.60;78.30;;;;;;5004396;28;20120;-79
2022/08/07 10:15:04;;;;;;;2.13;1.75;;;19.60;77.90;;;;;;5011345;28;20025;-79
2022/08/07 10:17:41;;;;;;;2.72;2.15;;;19.60;78.60;;;;;;5006103;28;20030;-77
2022/08/07 10:20:18;;;;;;;1.95;1.80;;;19.60;78.50;;;;;;5019461;28;20021;-79
2022/08/07 10:22:43;;;;;;;1.90;1.63;;;19.60;79.00;;;;;;5015299;28;20037;-77
2022/08/07 10:25:31;;;;;;;2.38;2.17;;;19.50;79.00;;;;;;5021004;28;20034;-78
2022/08/07 10:28:18;;;;;;;1.98;1.88;;;19.60;78.80;;;;;;5009217;28;20558;-78
2022/08/07 10:31:26;;;;;;;2.53;2.33;;;19.60;78.60;;;;;;4999479;28;20033;-78
2022/08/07 10:34:17;;;;;;;2.30;2.03;;;19.60;78.30;;;;;;4997968;28;20390;-79
2022/08/07 10:36:59;;;;;;;2.88;2.15;;;19.60;78.40;;;;;;5003909;28;20030;-78
2022/08/07 10:39:58;;;;;;;2.45;2.25;;;19.60;79.20;;;;;;5014551;28;20033;-78
2022/08/07 10:42:39;;;;;;;2.50;2.30;;;19.60;79.00;;;;;;5018599;28;21487;-78
2022/08/07 10:45:48;;;;;;;2.33;2.00;;;19.60;78.80;;;;;;5012431;28;20022;-78
2022/08/07 10:48:16;;;;;;;3.08;2.72;;;19.60;78.60;;;;;;5008229;28;20029;-78
2022/08/07 10:50:50;;;;;;;4.78;2.28;;;19.60;78.60;;;;;;5016703;28;20076;-78
2022/08/07 10:53:35;;;;;;;3.55;2.40;;;19.60;78.60;;;;;;5011446;28;20474;-78
2022/08/07 10:56:35;;;;;;;2.58;2.38;;;19.60;78.60;;;;;;5013833;28;20045;-77
2022/08/07 10:59:16;;;;;;;2.65;2.45;;;19.60;78.60;;;;;;5017675;28;20043;-78
2022/08/07 11:02:14;;;;;;;3.05;2.50;;;19.60;78.60;;;;;;5006373;28;20022;-78
2022/08/07 11:05:24;;;;;;;3.60;2.70;;;19.60;79.10;;;;;;4950622;28;20039;-78
2022/08/07 11:08:18;;;;;;;3.78;2.90;;;19.60;78.80;;;;;;4994072;28;20030;-78
2022/08/07 11:10:50;;;;;;;3.95;2.60;;;19.60;78.60;;;;;;5003436;28;20060;-79
2022/08/07 11:13:29;;;;;;;2.72;2.53;;;19.70;78.20;;;;;;5013497;28;20308;-79
2022/08/07 11:16:00;;;;;;;4.18;3.15;;;19.70;77.30;;;;;;5016232;28;20026;-77
2022/08/07 11:18:41;;;;;;;3.53;3.22;;;19.70;77.40;;;;;;5005993;28;20033;-79
2022/08/07 11:21:18;;;;;;;3.20;2.90;;;19.70;77.20;;;;;;5013277;28;20088;-78
2022/08/07 11:24:07;;;;;;;3.20;3.00;;;19.70;77.80;;;;;;5007602;28;20114;-78
2022/08/07 11:26:44;;;;;;;4.45;3.55;;;19.70;77.50;;;;;;5006092;28;20438;-78
2022/08/07 11:29:18;;;;;;;3.45;3.15;;;19.70;77.30;;;;;;5008674;28;20534;-77
2022/08/07 11:32:14;;;;;;;3.30;3.00;;;19.70;77.30;;;;;;5007903;28;20026;-78
2022/08/07 11:34:58;;;;;;;5.05;2.83;;;19.70;77.90;;;;;;5015917;28;20041;-77
2022/08/07 11:37:46;;;;;;;6.00;3.90;;;19.70;77.50;;;;;;5011877;28;20049;-79
2022/08/07 11:40:31;;;;;;;6.82;4.20;;;19.80;77.00;;;;;;5011170;28;20036;-78
2022/08/07 11:43:14;;;;;;;6.65;3.75;;;19.80;76.80;;;;;;5013378;28;20490;-78
2022/08/07 11:46:10;;;;;;;4.28;3.88;;;19.80;76.60;;;;;;5005490;28;20034;-78
2022/08/07 11:48:54;;;;;;;3.90;3.13;;;19.80;76.50;;;;;;5008798;28;20084;-77
2022/08/07 11:51:26;;;;;;;4.80;3.47;;;19.80;76.90;;;;;;5021014;28;20030;-79
2022/08/07 11:54:28;;;;;;;4.20;3.83;;;19.80;77.20;;;;;;5011669;28;20021;-78
2022/08/07 11:56:57;;;;;;;3.72;3.42;;;19.80;77.00;;;;;;5005460;28;20063;-78
2022/08/07 11:59:48;;;;;;;4.28;3.97;;;19.80;77.30;;;;;;5009016;28;20033;-79
2022/08/07 12:02:41;;;;;;;4.07;3.78;;;19.80;77.00;;;;;;5013970;28;20463;-79
2022/08/07 12:05:19;;;;;;;5.03;3.90;;;19.80;77.30;;;;;;5010629;28;20037;-78
2022/08/07 12:07:57;;;;;;;4.88;4.00;;;19.80;77.30;;;;;;5004871;28;20041;-78
2022/08/07 12:10:43;;;;;;;4.72;4.32;;;19.80;76.70;;;;;;5008307;28;20274;-79
2022/08/07 12:13:27;;;;;;;7.35;4.80;;;19.80;76.50;;;;;;5003030;28;20021;-79
2022/08/07 12:15:56;;;;;;;;;;;19.80;76.70;;;;;;5023010;28;20034;-79
2022/08/07 12:18:29;;;;;;;4.18;3.78;;;19.80;76.10;;;;;;5010990;28;19917;-79
2022/08/07 12:21:24;;;;;;;4.50;4.10;;;19.80;76.70;;;;;;5009457;28;20034;-78
2022/08/07 12:24:19;;;;;;;3.88;3.58;;;19.80;76.60;;;;;;5006358;28;20121;-78
2022/08/07 12:26:58;;;;;;;4.45;4.05;;;19.90;77.20;;;;;;5002450;28;20038;-78
2022/08/07 12:29:48;;;;;;;4.50;4.10;;;19.90;76.70;;;;;;5004794;28;20084;-78
2022/08/07 12:32:37;;;;;;;5.38;3.90;;;19.90;76.30;;;;;;5010655;28;20026;-78
2022/08/07 12:35:05;;;;;;;5.43;4.93;;;20.00;76.20;;;;;;5012380;28;20438;-77
2022/08/07 12:37:33;;;;;;;4.90;4.50;;;19.90;75.80;;;;;;5010697;28;20030;-77
2022/08/07 12:40:01;;;;;;;6.15;4.40;;;19.90;75.60;;;;;;5005870;28;20030;-79
2022/08/07 12:42:29;;;;;;;4.40;4.00;;;19.90;75.80;;;;;;5013226;28;20018;-79
2022/08/07 12:45:11;;;;;;;4.78;4.38;;;19.90;75.70;;;;;;5014859;28;20112;-78
2022/08/07 12:47:58;;;;;;;5.28;4.88;;;19.90;76.20;;;;;;5014101;28;20119;-79
2022/08/07 12:50:47;;;;;;;5.00;4.60;;;19.90;76.30;;;;;;5005976;28;20387;-79
2022/08/07 12:53:21;;;;;;;4.60;4.20;;;19.90;76.10;;;;;;5007845;28;20048;-77
2022/08/07 12:56:03;;;;;;;4.57;4.18;;;19.90;76.50;;;;;;5012084;28;20037;-79
2022/08/07 12:58:36;;;;;;;4.55;4.15;;;19.90;76.40;;;;;;5005655;28;20042;-78
2022/08/07 13:01:05;;;;;;;7.25;3.45;;;19.90;76.50;;;;;;5007247;28;20176;-77
2022/08/07 13:03:58;;;;;;;4.88;4.47;;;19.90;76.70;;;;;;5018965;28;20030;-78
2022/08/07 13:06:56;;;;;;;5.68;5.18;;;19.90;76.30;;;;;;5013997;28;20026;-78
2022/08/07 13:09:37;;;;;;;5.10;4.70;;;19.90;76.20;;;;;;5013659;28;20085;-78
2022/08/07 13:12:27;;;;;;;4.55;4.15;;;20.00;76.50;;;;;;5030605;28;20029;-78
2022/08/07 13:15:11;;;;;;;5.50;5.00;;;20.00;76.40;;;;;;5021598;28;20037;-78
2022/08/07 13:17:45;;;;;;;;;;;20.00;76.20;;;;;;5015576;28;20121;-78
2022/08/07 13:20:45;;;;;;;5.70;5.15;;;20.00;76.20;;;;;;5008257;28;19924;-77
2022/08/07 13:23:18;;;;;;;5.00;4.60;;;20.00;75.80;;;;;;5026357;28;20407;-78
2022/08/07 13:25:58;;;;;;;6.72;5.10;;;20.10;75.90;;;;;;5010650;28;20036;-78
2022/08/07 13:28:38;;;;;;;4.90;4.47;;;20.10;75.70;;;;;;5004941;28;20376;-78